Terminal Aerodrome Forecast
Issued by NWS

Home | Current Version | Previous Version | Text Only | Print | Product List | Glossary On
Versions: 1 2 3 4 5 6 7 8 9 10 11 12 13 14
000
FTUS43 KLSX 252320
TAFSUS
TAF
KSUS 252320Z 2600/2624 10005KT P6SM FEW200
     FM261500 20004KT P6SM FEW200
     FM261700 22004KT P6SM SCT050=

USA.gov is the U.S. government's official web portal to all federal, state and local government web resources and services.